createdAt,value
2022-08-26T00:01:44.030Z,24.60
2022-08-26T00:05:47.226Z,24.40
2022-08-26T00:09:50.016Z,24.40
2022-08-26T00:13:51.932Z,23.80
2022-08-26T00:17:55.021Z,24.00
2022-08-26T00:21:56.800Z,23.60
2022-08-26T00:25:58.649Z,24.00
2022-08-26T00:30:01.672Z,24.00
2022-08-26T00:34:03.407Z,24.00
2022-08-26T00:38:05.853Z,24.40
2022-08-26T00:42:09.394Z,24.00
2022-08-26T00:46:34.803Z,24.20
2022-08-26T00:50:42.465Z,24.20
2022-08-26T00:54:51.454Z,24.00
2022-08-26T00:58:56.730Z,24.00
2022-08-26T01:03:02.082Z,23.70
2022-08-26T01:07:07.256Z,23.50
2022-08-26T01:11:09.878Z,23.20
2022-08-26T01:15:18.904Z,23.30
2022-08-26T01:19:33.790Z,22.40
2022-08-26T01:23:39.332Z,22.10
2022-08-26T01:27:41.128Z,22.50
2022-08-26T01:31:51.204Z,22.90
2022-08-26T01:35:53.528Z,22.60
2022-08-26T01:39:56.676Z,22.80
2022-08-26T01:44:01.149Z,22.80
2022-08-26T01:48:11.558Z,23.00
2022-08-26T01:52:18.815Z,22.50
2022-08-26T01:56:24.620Z,22.80
2022-08-26T02:00:36.202Z,23.00
2022-08-26T02:04:47.901Z,23.40
2022-08-26T02:08:54.985Z,23.50
2022-08-26T02:12:56.853Z,23.70
2022-08-26T02:16:59.360Z,23.90
2022-08-26T02:21:01.687Z,23.40
2022-08-26T02:25:15.452Z,22.90
2022-08-26T02:29:23.629Z,22.80
2022-08-26T02:33:27.340Z,23.20
2022-08-26T02:37:31.484Z,22.90
2022-08-26T02:41:33.979Z,23.10
2022-08-26T02:45:36.164Z,23.30
2022-08-26T02:49:37.981Z,23.10
2022-08-26T02:53:39.910Z,23.30
2022-08-26T02:57:41.824Z,23.20
2022-08-26T03:01:45.179Z,22.80
2022-08-26T03:05:47.642Z,22.60
2022-08-26T03:09:49.356Z,22.80
2022-08-26T03:13:55.266Z,23.00
2022-08-26T03:17:57.041Z,23.30
2022-08-26T03:21:59.298Z,22.90
2022-08-26T03:26:01.441Z,23.00
2022-08-26T03:30:23.177Z,23.20
2022-08-26T03:34:25.169Z,23.30
2022-08-26T03:38:27.396Z,22.80
2022-08-26T03:42:29.233Z,22.80
2022-08-26T03:46:35.286Z,22.70
2022-08-26T03:50:37.748Z,23.00
2022-08-26T03:54:40.618Z,22.90
2022-08-26T03:58:45.884Z,23.20
2022-08-26T04:02:51.063Z,23.00
2022-08-26T04:06:59.281Z,22.30
2022-08-26T04:11:01.268Z,22.30
2022-08-26T04:15:06.029Z,21.80
2022-08-26T04:19:09.564Z,22.00
2022-08-26T04:23:11.553Z,21.90
2022-08-26T04:27:13.256Z,22.30
2022-08-26T04:31:16.423Z,22.70
2022-08-26T04:35:20.857Z,22.10
2022-08-26T04:39:28.089Z,22.30
2022-08-26T04:43:31.221Z,22.50
2022-08-26T04:47:33.064Z,22.80
2022-08-26T04:51:36.038Z,23.00
2022-08-26T04:55:39.951Z,23.20
2022-08-26T04:59:45.997Z,23.00
2022-08-26T05:03:49.007Z,22.50
2022-08-26T05:07:50.740Z,22.40
2022-08-26T05:11:52.712Z,22.60
2022-08-26T05:15:55.756Z,22.70
2022-08-26T05:20:04.049Z,22.20
2022-08-26T05:24:06.498Z,21.90
2022-08-26T05:28:09.786Z,21.90
2022-08-26T05:32:11.951Z,22.00
2022-08-26T05:36:16.782Z,21.70
2022-08-26T05:40:18.603Z,22.10
2022-08-26T05:44:22.362Z,21.70
2022-08-26T05:48:24.549Z,22.10
2022-08-26T05:52:26.534Z,22.40
2022-08-26T05:56:28.830Z,22.90
2022-08-26T06:00:30.564Z,23.00
2022-08-26T06:04:32.349Z,23.20
2022-08-26T06:08:37.475Z,23.50
2022-08-26T06:12:39.334Z,23.40
2022-08-26T06:16:44.980Z,23.40
2022-08-26T06:20:54.583Z,23.80
2022-08-26T06:25:18.331Z,23.60
2022-08-26T06:29:24.871Z,23.50
2022-08-26T06:33:28.815Z,23.80
2022-08-26T06:37:30.881Z,24.00
2022-08-26T06:41:35.008Z,24.10
2022-08-26T06:45:39.615Z,24.30
2022-08-26T06:49:42.350Z,24.70
2022-08-26T06:53:48.250Z,25.00
2022-08-26T06:57:50.785Z,25.20
2022-08-26T07:01:53.472Z,25.50
2022-08-26T07:06:01.884Z,25.60
2022-08-26T07:10:08.467Z,25.50
2022-08-26T07:14:10.517Z,25.40
2022-08-26T07:18:12.232Z,25.60
2022-08-26T07:22:14.294Z,25.90
2022-08-26T07:26:22.656Z,26.30
2022-08-26T07:30:26.740Z,26.50
2022-08-26T07:34:28.599Z,26.70
2022-08-26T07:38:30.338Z,26.80
2022-08-26T07:42:35.661Z,27.00
2022-08-26T07:46:37.353Z,27.00
2022-08-26T07:50:48.955Z,27.00
2022-08-26T07:54:52.174Z,26.70
2022-08-26T07:58:54.334Z,26.70
2022-08-26T08:02:56.099Z,26.90
2022-08-26T08:06:58.884Z,27.00
2022-08-26T08:11:02.259Z,27.10
2022-08-26T08:15:04.445Z,26.90
2022-08-26T08:19:06.532Z,26.60
2022-08-26T08:23:08.325Z,26.70
2022-08-26T08:27:10.689Z,26.10
2022-08-26T08:31:38.692Z,26.50
2022-08-26T08:35:43.626Z,27.00
2022-08-26T08:39:45.430Z,27.20
2022-08-26T08:43:47.864Z,27.40
2022-08-26T08:47:56.559Z,27.10
2022-08-26T08:52:18.336Z,27.30
2022-08-26T08:56:36.803Z,27.30
2022-08-26T09:00:57.863Z,27.50
2022-08-26T09:05:07.844Z,27.80
2022-08-26T09:09:16.374Z,28.20
2022-08-26T09:13:25.124Z,28.20
2022-08-26T09:17:59.927Z,28.20
2022-08-26T09:22:08.804Z,28.40
2022-08-26T09:26:45.843Z,28.30
2022-08-26T09:31:01.799Z,28.50
2022-08-26T09:35:27.600Z,28.10
2022-08-26T09:39:38.511Z,28.10
2022-08-26T09:43:40.670Z,28.40
2022-08-26T09:47:46.066Z,28.30
2022-08-26T09:51:50.138Z,28.40
2022-08-26T09:56:12.859Z,28.50
2022-08-26T10:00:32.800Z,28.30
2022-08-26T10:04:35.482Z,28.10
2022-08-26T10:08:47.513Z,28.40
2022-08-26T10:12:57.720Z,28.70
2022-08-26T10:17:05.546Z,28.60
2022-08-26T10:21:23.059Z,28.90
2022-08-26T10:25:31.317Z,28.80
2022-08-26T10:29:48.437Z,29.30
2022-08-26T10:33:51.225Z,29.20
2022-08-26T10:38:03.474Z,29.00
2022-08-26T10:42:16.847Z,29.40
2022-08-26T10:46:27.289Z,29.40
2022-08-26T10:50:42.768Z,29.50
2022-08-26T10:55:05.564Z,29.70
2022-08-26T10:59:15.597Z,29.30
2022-08-26T11:03:31.443Z,29.80
2022-08-26T11:07:52.589Z,29.70
2022-08-26T11:11:57.189Z,29.70
2022-08-26T11:15:59.462Z,29.50
2022-08-26T11:20:09.211Z,29.70
2022-08-26T11:24:52.997Z,30.30
2022-08-26T11:28:55.350Z,30.80
2022-08-26T11:32:58.824Z,30.60
2022-08-26T11:37:03.393Z,30.50
2022-08-26T11:41:11.929Z,30.60
2022-08-26T11:45:37.532Z,30.20
2022-08-26T11:49:39.654Z,30.50
2022-08-26T11:53:47.469Z,29.80
2022-08-26T11:57:52.942Z,30.30
2022-08-26T12:01:56.055Z,30.60
2022-08-26T12:05:58.034Z,31.20
2022-08-26T12:10:03.471Z,31.30
2022-08-26T12:14:27.875Z,31.10
2022-08-26T12:18:38.439Z,31.50
2022-08-26T12:22:43.793Z,31.90
2022-08-26T12:26:51.253Z,31.60
2022-08-26T12:31:04.745Z,31.30
2022-08-26T12:35:12.625Z,31.30
2022-08-26T12:39:24.802Z,30.30
2022-08-26T12:43:42.137Z,29.10
2022-08-26T12:47:45.627Z,28.60
2022-08-26T12:51:50.216Z,27.80
2022-08-26T12:55:57.242Z,27.40
2022-08-26T13:00:30.059Z,26.90
2022-08-26T13:04:41.798Z,26.30
2022-08-26T13:08:46.538Z,25.90
2022-08-26T13:12:48.246Z,24.40
2022-08-26T13:16:50.465Z,24.60
2022-08-26T13:20:52.616Z,25.00
2022-08-26T13:24:56.498Z,24.60
2022-08-26T13:29:01.214Z,24.00
2022-08-26T13:33:04.104Z,23.50
2022-08-26T13:37:06.406Z,23.80
2022-08-26T13:41:08.157Z,24.10
2022-08-26T13:45:12.047Z,24.80
2022-08-26T13:49:14.203Z,25.20
2022-08-26T13:53:17.594Z,25.50
2022-08-26T13:57:19.395Z,25.90
2022-08-26T14:01:21.597Z,25.30
2022-08-26T14:05:23.300Z,25.50
2022-08-26T14:09:25.084Z,26.10
2022-08-26T14:13:26.828Z,25.60
2022-08-26T14:17:28.644Z,25.10
2022-08-26T14:21:35.225Z,25.00
2022-08-26T14:25:36.958Z,24.20
2022-08-26T14:29:38.998Z,23.80
2022-08-26T14:33:41.431Z,24.40
2022-08-26T14:37:43.275Z,24.80
2022-08-26T14:41:55.178Z,25.20
2022-08-26T14:45:57.024Z,24.60
2022-08-26T14:49:58.862Z,24.70
2022-08-26T14:54:12.471Z,24.40
2022-08-26T14:58:14.209Z,25.50
2022-08-26T15:02:32.893Z,25.40
2022-08-26T15:06:35.989Z,25.80
2022-08-26T15:10:38.148Z,26.00
2022-08-26T15:14:40.029Z,25.30
2022-08-26T15:18:41.977Z,24.20
2022-08-26T15:22:44.412Z,24.90
2022-08-26T15:26:46.714Z,25.10
2022-08-26T15:30:48.641Z,25.60
2022-08-26T15:34:52.986Z,25.30
2022-08-26T15:38:55.104Z,25.80
2022-08-26T15:43:11.376Z,25.20
2022-08-26T15:47:20.242Z,26.10
2022-08-26T15:51:27.968Z,26.50
2022-08-26T15:55:29.745Z,26.40
2022-08-26T15:59:31.608Z,25.90
2022-08-26T16:03:33.346Z,26.50
2022-08-26T16:07:35.372Z,26.60
2022-08-26T16:11:38.230Z,26.60
2022-08-26T16:15:40.004Z,26.40
2022-08-26T16:19:41.778Z,26.40
2022-08-26T16:23:45.369Z,26.60
2022-08-26T16:27:47.354Z,26.40
2022-08-26T16:31:53.151Z,26.70
2022-08-26T16:35:55.202Z,27.20
2022-08-26T16:39:57.020Z,27.60
2022-08-26T16:43:59.050Z,27.60
2022-08-26T16:48:00.781Z,27.70
2022-08-26T16:52:02.727Z,27.70
2022-08-26T16:56:04.825Z,27.90
2022-08-26T17:00:19.667Z,27.90
2022-08-26T17:04:21.907Z,27.80
2022-08-26T17:08:28.465Z,27.70
2022-08-26T17:12:31.389Z,27.10
2022-08-26T17:16:33.328Z,27.00
2022-08-26T17:20:35.234Z,27.40
2022-08-26T17:24:37.361Z,27.10
2022-08-26T17:28:40.146Z,26.30
2022-08-26T17:32:42.392Z,25.40
2022-08-26T17:36:44.153Z,25.40
2022-08-26T17:40:45.905Z,25.10
2022-08-26T17:44:48.643Z,25.80
2022-08-26T17:48:50.428Z,26.30
2022-08-26T17:52:52.150Z,26.70
2022-08-26T17:56:53.875Z,26.60
2022-08-26T18:00:56.201Z,26.50
2022-08-26T18:04:58.122Z,26.90
2022-08-26T18:09:00.920Z,26.80
2022-08-26T18:13:02.720Z,27.00
2022-08-26T18:17:04.953Z,26.90
2022-08-26T18:21:19.026Z,26.90
2022-08-26T18:25:20.883Z,26.90
2022-08-26T18:29:25.282Z,25.60
2022-08-26T18:33:27.000Z,24.60
2022-08-26T18:37:31.549Z,24.60
2022-08-26T18:41:39.049Z,25.20
2022-08-26T18:45:40.926Z,25.40
2022-08-26T18:49:42.724Z,24.90
2022-08-26T18:53:44.578Z,24.20
2022-08-26T18:57:46.346Z,24.70
2022-08-26T19:01:50.521Z,24.50
2022-08-26T19:05:52.426Z,24.40
2022-08-26T19:09:54.261Z,23.90
2022-08-26T19:13:56.042Z,24.10
2022-08-26T19:17:58.699Z,23.40
2022-08-26T19:22:01.376Z,22.80
2022-08-26T19:26:05.117Z,22.60
2022-08-26T19:30:07.705Z,22.20
2022-08-26T19:34:10.167Z,21.60
2022-08-26T19:38:11.993Z,21.40
2022-08-26T19:42:13.888Z,21.10
2022-08-26T19:46:18.693Z,21.30
2022-08-26T19:50:21.551Z,21.80
2022-08-26T19:54:23.578Z,21.70
2022-08-26T19:58:25.286Z,21.70
2022-08-26T20:02:28.345Z,23.50
2022-08-26T20:06:30.140Z,24.00
2022-08-26T20:10:31.877Z,23.60
2022-08-26T20:14:35.176Z,22.80
2022-08-26T20:18:55.434Z,22.90
2022-08-26T20:22:57.233Z,22.00
2022-08-26T20:26:59.072Z,23.00
2022-08-26T20:31:01.977Z,22.90
2022-08-26T20:35:07.145Z,23.30
2022-08-26T20:39:10.691Z,23.40
2022-08-26T20:43:12.482Z,22.90
2022-08-26T20:47:14.222Z,22.50
2022-08-26T20:51:17.719Z,22.80
2022-08-26T20:55:20.321Z,22.30
2022-08-26T20:59:22.133Z,22.50
2022-08-26T21:03:24.237Z,22.10
2022-08-26T21:07:26.331Z,22.90
2022-08-26T21:11:29.123Z,23.60
2022-08-26T21:15:31.818Z,23.40
2022-08-26T21:19:33.609Z,23.20
2022-08-26T21:23:36.382Z,22.90
2022-08-26T21:27:38.682Z,22.70
2022-08-26T21:31:45.705Z,21.60
2022-08-26T21:35:55.455Z,22.20
2022-08-26T21:39:58.892Z,23.10
2022-08-26T21:44:00.626Z,23.20
2022-08-26T21:48:02.626Z,23.60
2022-08-26T21:52:04.668Z,23.80
2022-08-26T21:56:09.598Z,23.80
2022-08-26T22:00:14.828Z,23.60
2022-08-26T22:04:17.184Z,23.50
2022-08-26T22:08:20.582Z,23.30
2022-08-26T22:12:22.382Z,23.50
2022-08-26T22:16:26.853Z,23.40
2022-08-26T22:20:29.005Z,23.80
2022-08-26T22:24:31.038Z,24.10
2022-08-26T22:28:32.893Z,24.30
2022-08-26T22:32:34.712Z,24.50
2022-08-26T22:36:43.597Z,24.20
2022-08-26T22:40:51.267Z,24.20
2022-08-26T22:44:53.132Z,24.40
2022-08-26T22:48:54.906Z,24.50
2022-08-26T22:52:56.770Z,24.70
2022-08-26T22:56:58.778Z,24.30
2022-08-26T23:01:00.923Z,24.10
2022-08-26T23:05:02.640Z,24.10
2022-08-26T23:09:05.761Z,23.80
2022-08-26T23:13:08.190Z,23.50
2022-08-26T23:17:11.967Z,23.80
2022-08-26T23:21:13.761Z,23.80
2022-08-26T23:25:15.515Z,23.50
2022-08-26T23:29:17.912Z,23.40
2022-08-26T23:33:20.342Z,23.40
2022-08-26T23:37:27.665Z,23.00
2022-08-26T23:41:30.506Z,23.00
2022-08-26T23:45:33.003Z,23.10
2022-08-26T23:49:35.959Z,22.80
2022-08-26T23:53:37.683Z,23.00
2022-08-26T23:57:39.792Z,22.80
